Time;durP1;ratioP1;P1;durP2;ratioP2;P2;SDS_P1;SDS_P2;PMS_P1;PMS_P2;Temp;Humidity;BMP_temperature;BMP_pressure;BME280_temperature;BME280_humidity;BME280_pressure;Samples;Min_cycle;Max_cycle;Signal;HPM_P1;HPM_P2
2023/10/28 00:00:17;;;;;;;3.30;2.43;;;10.00;99.90;;;-141.84;100.00;119224.81;4995646;28;20234;-62
2023/10/28 00:02:46;;;;;;;2.47;2.27;;;9.90;99.90;;;-141.84;100.00;119224.81;4999348;28;20199;-61
2023/10/28 00:05:14;;;;;;;4.57;2.67;;;9.90;99.90;;;-141.84;100.00;119224.81;4994383;28;20261;-62
2023/10/28 00:07:42;;;;;;;3.67;2.50;;;9.80;99.90;;;-141.84;100.00;119224.81;4995176;28;20675;-62
2023/10/28 00:10:11;;;;;;;3.83;2.37;;;9.80;99.90;;;-141.84;100.00;119224.81;4997136;28;20203;-61
2023/10/28 00:12:41;;;;;;;2.90;2.30;;;9.70;99.90;;;-141.84;100.00;119224.81;4992675;28;20195;-62
2023/10/28 00:15:10;;;;;;;3.13;2.33;;;9.70;99.90;;;-141.84;100.00;119224.81;4995910;28;20262;-62
2023/10/28 00:17:38;;;;;;;5.70;2.33;;;9.60;99.90;;;-141.84;100.00;119224.81;4995455;28;20214;-62
2023/10/28 00:20:08;;;;;;;4.73;2.50;;;9.70;99.90;;;-141.84;100.00;119224.81;4998685;28;20750;-62
2023/10/28 00:22:37;;;;;;;2.70;2.47;;;9.70;99.90;;;-141.84;100.00;119224.81;4997812;28;20203;-62
2023/10/28 00:25:06;;;;;;;3.80;2.70;;;9.80;99.90;;;-141.84;100.00;119224.81;4998267;28;20196;-62
2023/10/28 00:27:34;;;;;;;4.63;2.43;;;9.80;99.90;;;-141.84;100.00;119224.81;4992327;28;20636;-63
2023/10/28 00:30:07;;;;;;;4.90;2.43;;;9.80;99.90;;;-141.84;100.00;119224.81;4996546;28;20226;-62
2023/10/28 00:32:36;;;;;;;3.37;2.00;;;9.90;99.90;;;-141.84;100.00;119224.81;4995835;28;20207;-63
2023/10/28 00:35:07;;;;;;;3.13;2.13;;;9.90;99.90;;;-141.84;100.00;119224.81;4997521;28;20683;-62
2023/10/28 00:37:35;;;;;;;3.37;2.80;;;9.90;99.90;;;-141.84;100.00;119224.81;4998781;28;20199;-61
2023/10/28 00:40:05;;;;;;;3.57;2.10;;;9.90;99.90;;;-141.84;100.00;119224.81;4993026;28;20199;-63
2023/10/28 00:42:35;;;;;;;3.97;2.33;;;9.80;99.90;;;-141.84;100.00;119224.81;4995663;28;20195;-62
2023/10/28 00:45:08;;;;;;;3.97;2.23;;;9.80;99.90;;;-141.84;100.00;119224.81;4995956;28;20282;-62
2023/10/28 00:47:38;;;;;;;2.47;2.20;;;9.80;99.90;;;-141.84;100.00;119224.81;4992323;28;20208;-62
2023/10/28 00:50:11;;;;;;;4.53;2.27;;;9.70;99.90;;;-141.84;100.00;119224.81;5001588;28;20282;-62
2023/10/28 00:52:41;;;;;;;4.00;2.17;;;9.70;99.90;;;-141.84;100.00;119224.81;4993717;28;20211;-63
2023/10/28 00:55:11;;;;;;;4.87;2.10;;;9.70;99.90;;;-141.84;100.00;119224.81;5001541;28;20206;-62
2023/10/28 00:57:42;;;;;;;4.47;2.57;;;9.60;99.90;;;-141.84;100.00;119224.81;4995935;28;20203;-61
2023/10/28 01:00:14;;;;;;;3.73;1.80;;;9.60;99.90;;;-141.84;100.00;119224.81;4996355;28;20233;-61
2023/10/28 01:02:44;;;;;;;2.40;2.20;;;9.60;99.90;;;-141.84;100.00;119224.81;4996735;28;20199;-62
2023/10/28 01:05:16;;;;;;;3.17;2.00;;;9.50;99.90;;;-141.84;100.00;119224.81;4994737;28;20199;-62
2023/10/28 01:07:47;;;;;;;2.40;2.07;;;9.40;99.90;;;-141.84;100.00;119224.81;4996694;28;20564;-61
2023/10/28 01:10:27;;;;;;;3.17;2.00;;;9.30;99.90;;;-141.84;100.00;119224.81;4995206;28;20254;-62
2023/10/28 01:12:56;;;;;;;2.50;2.03;;;9.30;99.90;;;-141.84;100.00;119224.81;4995179;28;20196;-61
2023/10/28 01:15:26;;;;;;;3.00;2.20;;;9.30;99.90;;;-141.84;100.00;119224.81;4990196;28;20215;-61
2023/10/28 01:17:54;;;;;;;2.67;2.30;;;9.40;99.90;;;-141.84;100.00;119224.81;4993551;28;20730;-61
2023/10/28 01:20:23;;;;;;;3.27;2.00;;;9.40;99.90;;;-141.84;100.00;119224.81;4993902;28;20544;-62
2023/10/28 01:22:52;;;;;;;2.10;1.90;;;9.40;99.90;;;-141.84;100.00;119224.81;4993169;28;20199;-62
2023/10/28 01:25:21;;;;;;;5.27;2.40;;;9.40;99.90;;;-141.84;100.00;119224.81;4992645;28;20256;-62
2023/10/28 01:27:49;;;;;;;3.87;2.40;;;9.40;99.90;;;-141.84;100.00;119224.81;4995171;28;20647;-62
2023/10/28 01:30:17;;;;;;;2.63;2.30;;;9.30;99.90;;;-141.84;100.00;119224.81;5001065;28;20223;-62
2023/10/28 01:32:46;;;;;;;3.13;1.97;;;9.20;99.90;;;-141.84;100.00;119224.81;4997712;28;20558;-62
2023/10/28 01:35:14;;;;;;;3.23;2.00;;;9.20;99.90;;;-141.84;100.00;119224.81;4997020;28;20227;-63
2023/10/28 01:37:43;;;;;;;7.23;2.33;;;9.10;99.90;;;-141.84;100.00;119224.81;4996317;28;20804;-62
2023/10/28 01:40:13;;;;;;;3.70;2.10;;;9.00;99.90;;;-141.84;100.00;119224.81;4991597;28;20315;-66
2023/10/28 01:42:44;;;;;;;3.47;2.20;;;9.00;99.90;;;-141.84;100.00;119224.81;4995059;28;20200;-67
2023/10/28 01:45:13;;;;;;;4.30;2.30;;;9.10;99.90;;;-141.84;100.00;119224.81;4994691;28;20205;-68
2023/10/28 01:47:43;;;;;;;3.70;2.30;;;9.00;99.90;;;-141.84;100.00;119224.81;4994669;28;20203;-67
2023/10/28 01:50:12;;;;;;;4.47;2.33;;;8.90;99.90;;;-141.84;100.00;119224.81;4995991;28;20749;-66
2023/10/28 01:52:42;;;;;;;2.73;2.37;;;9.00;99.90;;;-141.84;100.00;119224.81;4995161;28;20827;-66
2023/10/28 01:55:13;;;;;;;5.63;2.40;;;8.90;99.90;;;-141.84;100.00;119224.81;4994755;28;20217;-67
2023/10/28 01:57:41;;;;;;;5.40;2.47;;;8.90;99.90;;;-141.84;100.00;119224.81;4997551;28;20206;-66
2023/10/28 02:00:13;;;;;;;3.90;2.63;;;8.80;99.90;;;-141.84;100.00;119224.81;4989745;28;20227;-67
2023/10/28 02:02:41;;;;;;;3.77;2.53;;;8.70;99.90;;;-141.84;100.00;119224.81;4993998;28;20635;-67
2023/10/28 02:05:11;;;;;;;4.93;3.00;;;8.70;99.90;;;-141.84;100.00;119224.81;4997437;28;20195;-67
2023/10/28 02:07:40;;;;;;;4.37;3.43;;;8.70;99.90;;;-141.84;100.00;119224.81;4991127;28;20204;-67
2023/10/28 02:10:09;;;;;;;4.53;2.80;;;8.60;99.90;;;-141.84;100.00;119224.81;4994715;28;20202;-66
2023/10/28 02:12:39;;;;;;;6.37;3.60;;;8.60;99.90;;;-141.84;100.00;119224.81;4994916;28;20207;-67
2023/10/28 02:15:10;;;;;;;3.30;3.00;;;8.60;99.90;;;-141.84;100.00;119224.81;4991777;28;20207;-66
2023/10/28 02:17:39;;;;;;;3.70;3.10;;;8.60;99.90;;;-141.84;100.00;119224.81;4994122;28;20207;-68
2023/10/28 02:20:10;;;;;;;4.07;3.67;;;8.50;99.90;;;-141.84;100.00;119224.81;4993832;28;20202;-68
2023/10/28 02:22:38;;;;;;;4.00;3.50;;;8.50;99.90;;;-141.84;100.00;119224.81;4998782;28;20746;-66
2023/10/28 02:25:08;;;;;;;6.40;3.27;;;8.50;99.90;;;-141.84;100.00;119224.81;4996056;28;20195;-67
2023/10/28 02:27:38;;;;;;;4.27;3.37;;;8.50;99.90;;;-141.84;100.00;119224.81;4994894;28;20213;-67
2023/10/28 02:30:08;;;;;;;4.27;3.33;;;8.40;99.90;;;-141.84;100.00;119224.81;4996973;28;20199;-67
2023/10/28 02:32:37;;;;;;;3.93;3.10;;;8.40;99.90;;;-141.84;100.00;119224.81;4996158;28;20297;-68
2023/10/28 02:35:07;;;;;;;4.33;3.60;;;8.30;99.90;;;-141.84;100.00;119224.81;5001216;28;20293;-67
2023/10/28 02:37:35;;;;;;;4.13;3.03;;;8.30;99.90;;;-141.84;100.00;119224.81;4999758;28;20207;-67
2023/10/28 02:40:06;;;;;;;6.10;2.90;;;8.30;99.90;;;-141.84;100.00;119224.81;4999346;28;20297;-66
2023/10/28 02:42:34;;;;;;;4.30;3.60;;;8.30;99.90;;;-141.84;100.00;119224.81;5001399;28;20234;-67
2023/10/28 02:45:07;;;;;;;4.30;3.83;;;8.30;99.90;;;-141.84;100.00;119224.81;5001317;28;20225;-67
2023/10/28 02:47:35;;;;;;;6.77;3.30;;;8.20;99.90;;;-141.84;100.00;119224.81;4997077;28;20239;-66
2023/10/28 02:50:04;;;;;;;3.70;3.40;;;8.20;99.90;;;-141.84;100.00;119224.81;5003168;28;20237;-68
2023/10/28 02:52:32;;;;;;;3.47;3.10;;;8.20;99.90;;;-141.84;100.00;119224.81;5003262;28;20209;-66
2023/10/28 02:55:00;;;;;;;4.00;3.23;;;8.20;99.90;;;-141.84;100.00;119224.81;5002351;28;20310;-67
2023/10/28 02:57:29;;;;;;;3.47;3.10;;;8.20;99.90;;;-141.84;100.00;119224.81;5003363;28;20289;-67
2023/10/28 02:59:57;;;;;;;4.13;2.90;;;8.10;99.90;;;-141.84;100.00;119224.81;5003736;28;20675;-68
2023/10/28 03:02:27;;;;;;;4.20;3.10;;;8.10;99.90;;;-141.84;100.00;119224.81;5001558;28;20711;-67
2023/10/28 03:04:55;;;;;;;4.60;2.90;;;8.10;99.90;;;-141.84;100.00;119224.81;5002788;28;20199;-68
2023/10/28 03:07:24;;;;;;;4.80;2.73;;;8.00;99.90;;;-141.84;100.00;119224.81;5001454;28;20282;-68
2023/10/28 03:09:52;;;;;;;5.10;2.93;;;8.00;99.90;;;-141.84;100.00;119224.81;5001908;28;20199;-68
2023/10/28 03:12:20;;;;;;;7.50;3.10;;;8.00;99.90;;;-141.84;100.00;119224.81;5003165;28;20207;-67
2023/10/28 03:14:48;;;;;;;4.27;3.27;;;8.10;99.90;;;-141.84;100.00;119224.81;5002811;28;20623;-67
2023/10/28 03:17:17;;;;;;;3.97;3.00;;;8.10;99.90;;;-141.84;100.00;119224.81;4999701;28;20711;-67
2023/10/28 03:19:47;;;;;;;4.70;3.00;;;8.10;99.90;;;-141.84;100.00;119224.81;5002449;28;20199;-67
2023/10/28 03:22:15;;;;;;;5.30;3.00;;;8.00;99.90;;;-141.84;100.00;119224.81;4995206;28;20211;-68
2023/10/28 03:24:43;;;;;;;3.90;2.70;;;8.00;99.90;;;-141.84;100.00;119224.81;4999454;28;20233;-67
2023/10/28 03:27:12;;;;;;;4.33;2.97;;;8.00;99.90;;;-141.84;100.00;119224.81;5004023;28;20288;-67
2023/10/28 03:29:40;;;;;;;4.47;2.87;;;8.00;99.90;;;-141.84;100.00;119224.81;4998321;28;20295;-66
2023/10/28 03:32:08;;;;;;;4.40;2.83;;;7.90;99.90;;;-141.84;100.00;119224.81;4998518;28;20930;-62
2023/10/28 03:34:37;;;;;;;4.70;2.90;;;7.90;99.90;;;-141.84;100.00;119224.81;4997709;28;20251;-62
2023/10/28 03:37:06;;;;;;;4.13;2.90;;;7.90;99.90;;;-141.84;100.00;119224.81;5000883;28;20295;-62
2023/10/28 03:39:34;;;;;;;4.73;3.17;;;7.90;99.90;;;-141.84;100.00;119224.81;4991018;28;20235;-62
2023/10/28 03:42:03;;;;;;;4.50;3.40;;;7.80;99.90;;;-141.84;100.00;119224.81;4997219;28;20238;-63
2023/10/28 03:44:31;;;;;;;5.33;3.37;;;7.80;99.90;;;-141.84;100.00;119224.81;4996359;28;20258;-62
2023/10/28 03:47:00;;;;;;;5.73;3.90;;;7.80;99.90;;;-141.84;100.00;119224.81;4992601;28;20227;-63
2023/10/28 03:49:28;;;;;;;6.60;4.03;;;7.90;99.90;;;-141.84;100.00;119224.81;5001177;28;20706;-61
2023/10/28 03:51:56;;;;;;;5.40;3.70;;;7.80;99.90;;;-141.84;100.00;119224.81;4999897;28;20198;-63
2023/10/28 03:54:26;;;;;;;6.17;4.03;;;7.80;99.90;;;-141.84;100.00;119224.81;5003349;28;20298;-62
2023/10/28 03:56:54;;;;;;;4.13;3.40;;;7.80;99.90;;;-141.84;100.00;119224.81;4999281;28;20254;-62
2023/10/28 03:59:22;;;;;;;4.73;3.47;;;7.90;99.90;;;-141.84;100.00;119224.81;4999089;28;20234;-62
2023/10/28 04:01:51;;;;;;;8.73;4.00;;;7.90;99.90;;;-141.84;100.00;119224.81;4998484;28;20223;-62
2023/10/28 04:04:19;;;;;;;5.63;4.03;;;7.80;99.90;;;-141.84;100.00;119224.81;5001982;28;20204;-62
2023/10/28 04:06:47;;;;;;;5.30;3.50;;;7.80;99.90;;;-141.84;100.00;119224.81;4999406;28;20195;-62
2023/10/28 04:09:15;;;;;;;4.97;4.10;;;7.90;99.90;;;-141.84;100.00;119224.81;5002281;28;20592;-62
2023/10/28 04:11:45;;;;;;;4.60;3.77;;;7.90;99.90;;;-141.84;100.00;119224.81;4991399;28;20299;-62
2023/10/28 04:14:13;;;;;;;5.33;3.87;;;7.90;99.90;;;-141.84;100.00;119224.81;4995962;28;20571;-63
2023/10/28 04:16:41;;;;;;;6.87;4.13;;;7.90;99.90;;;-141.84;100.00;119224.81;4999890;28;20230;-63
2023/10/28 04:19:10;;;;;;;5.10;4.23;;;7.90;99.90;;;-141.84;100.00;119224.81;5000491;28;20204;-61
2023/10/28 04:21:38;;;;;;;5.40;4.43;;;7.90;99.90;;;-141.84;100.00;119224.81;4993046;28;20287;-63
2023/10/28 04:24:08;;;;;;;6.93;4.70;;;7.90;99.90;;;-141.84;100.00;119224.81;4999753;28;20203;-62
2023/10/28 04:26:36;;;;;;;5.97;4.53;;;7.90;99.90;;;-141.84;100.00;119224.81;4999432;28;20199;-61
2023/10/28 04:29:06;;;;;;;7.33;4.60;;;8.00;99.90;;;-141.84;100.00;119224.81;4997304;28;20234;-62
2023/10/28 04:31:34;;;;;;;5.10;4.30;;;8.00;99.90;;;-141.84;100.00;119224.81;4997200;28;20199;-62
2023/10/28 04:34:04;;;;;;;6.97;4.80;;;8.10;99.90;;;-141.84;100.00;119224.81;5000365;28;20683;-63
2023/10/28 04:36:33;;;;;;;7.03;4.87;;;8.20;99.90;;;-141.84;100.00;119224.81;4998641;28;20241;-63
2023/10/28 04:39:01;;;;;;;8.03;4.60;;;8.30;99.90;;;-141.84;100.00;119224.81;4998970;28;20279;-62
2023/10/28 04:41:30;;;;;;;7.10;4.60;;;8.30;99.90;;;-141.84;100.00;119224.81;4995794;28;20203;-63
2023/10/28 04:43:59;;;;;;;8.80;4.53;;;8.30;99.90;;;-141.84;100.00;119224.81;4998983;28;20208;-63
2023/10/28 04:46:29;;;;;;;6.20;4.50;;;8.40;99.90;;;-141.84;100.00;119224.81;4999360;28;20300;-62
2023/10/28 04:48:58;;;;;;;6.13;4.40;;;8.40;99.90;;;-141.84;100.00;119224.81;5000452;28;20219;-62
2023/10/28 04:51:26;;;;;;;5.93;4.47;;;8.40;99.90;;;-141.84;100.00;119224.81;4999250;28;20571;-62
2023/10/28 04:53:56;;;;;;;8.33;4.77;;;8.50;99.90;;;-141.84;100.00;119224.81;5000837;28;20879;-62
2023/10/28 04:56:24;;;;;;;7.97;5.27;;;8.50;99.90;;;-141.84;100.00;119224.81;4995337;28;20420;-62
2023/10/28 04:58:52;;;;;;;6.33;4.60;;;8.60;99.90;;;-141.84;100.00;119224.81;4996342;28;20297;-62
2023/10/28 05:01:21;;;;;;;5.23;4.50;;;8.80;99.90;;;-141.84;100.00;119224.81;4999919;28;20187;-62
2023/10/28 05:03:50;;;;;;;6.13;4.47;;;8.80;99.90;;;-141.84;100.00;119224.81;4995336;28;20889;-63
2023/10/28 05:06:20;;;;;;;8.17;4.70;;;8.90;99.90;;;-141.84;100.00;119224.81;5001205;28;20669;-62
2023/10/28 05:08:49;;;;;;;5.90;3.97;;;8.90;99.90;;;-141.84;100.00;119224.81;4992379;28;20210;-61
2023/10/28 05:11:17;;;;;;;5.57;4.33;;;8.80;99.90;;;-141.84;100.00;119224.81;4997284;28;20283;-62
2023/10/28 05:13:46;;;;;;;6.33;4.60;;;9.00;99.90;;;-141.84;100.00;119224.81;4992355;28;20335;-62
2023/10/28 05:16:14;;;;;;;7.87;4.63;;;9.00;99.90;;;-141.84;100.00;119224.81;4998872;28;20219;-62
2023/10/28 05:18:42;;;;;;;6.77;5.30;;;9.00;99.90;;;-141.84;100.00;119224.81;4995622;28;20239;-62
2023/10/28 05:21:12;;;;;;;6.87;6.27;;;9.00;99.90;;;-141.84;100.00;119224.81;4997907;28;20231;-62
2023/10/28 05:23:40;;;;;;;11.17;6.70;;;9.10;99.90;;;-141.84;100.00;119224.81;4991786;28;20203;-62
2023/10/28 05:26:08;;;;;;;6.33;5.07;;;9.10;99.90;;;-141.84;100.00;119224.81;4991071;28;20195;-62
2023/10/28 05:28:36;;;;;;;7.67;5.53;;;9.10;99.90;;;-141.84;100.00;119224.81;4992286;28;20204;-62
2023/10/28 05:31:06;;;;;;;9.67;5.90;;;9.10;99.90;;;-141.84;100.00;119224.81;4994968;28;20286;-62
2023/10/28 05:33:34;;;;;;;5.80;5.10;;;9.10;99.90;;;-141.84;100.00;119224.81;4994467;28;20287;-62
2023/10/28 05:36:03;;;;;;;6.80;5.53;;;9.20;99.90;;;-141.84;100.00;119224.81;5000532;28;22594;-63
2023/10/28 05:38:33;;;;;;;7.07;4.97;;;9.10;99.90;;;-141.84;100.00;119224.81;5001828;28;20212;-62
2023/10/28 05:41:01;;;;;;;6.63;5.10;;;9.10;99.90;;;-141.84;100.00;119224.81;4997043;28;20289;-62
2023/10/28 05:43:30;;;;;;;7.33;6.17;;;9.00;99.90;;;-141.84;100.00;119224.81;4999171;28;20652;-62
2023/10/28 05:45:59;;;;;;;9.67;6.13;;;9.10;99.90;;;-141.84;100.00;119224.81;4996838;28;20258;-63
2023/10/28 05:48:28;;;;;;;8.17;6.70;;;9.00;99.90;;;-141.84;100.00;119224.81;5000956;28;20237;-62
2023/10/28 05:50:57;;;;;;;12.27;7.13;;;9.00;99.90;;;-141.84;100.00;119224.81;4996743;28;20203;-62
2023/10/28 05:53:26;;;;;;;10.70;7.77;;;9.00;99.90;;;-141.84;100.00;119224.81;5000058;28;20697;-63
2023/10/28 05:55:55;;;;;;;8.03;6.93;;;9.00;99.90;;;-141.84;100.00;119224.81;4998548;28;20837;-63
2023/10/28 05:58:23;;;;;;;8.53;7.73;;;9.00;99.90;;;-141.84;100.00;119224.81;4995251;28;20617;-63
2023/10/28 06:00:53;;;;;;;7.90;6.97;;;9.10;99.90;;;-141.84;100.00;119224.81;4997511;28;20330;-63
2023/10/28 06:03:22;;;;;;;9.60;6.53;;;9.10;99.90;;;-141.84;100.00;119224.81;5001160;28;20276;-64
2023/10/28 06:05:50;;;;;;;7.63;5.90;;;9.10;99.90;;;-141.84;100.00;119224.81;4996817;28;20210;-62
2023/10/28 06:08:18;;;;;;;8.73;6.10;;;9.20;99.90;;;-141.84;100.00;119224.81;4996312;28;20286;-63
2023/10/28 06:10:47;;;;;;;7.53;5.37;;;9.20;99.90;;;-141.84;100.00;119224.81;4998448;28;20207;-63
2023/10/28 06:13:17;;;;;;;7.27;6.20;;;9.20;99.90;;;-141.84;100.00;119224.81;4999308;28;20215;-63
2023/10/28 06:15:46;;;;;;;8.80;5.90;;;9.30;99.90;;;-141.84;100.00;119224.81;4993957;28;20230;-63
2023/10/28 06:18:15;;;;;;;8.07;5.80;;;9.30;99.90;;;-141.84;100.00;119224.81;5000613;28;20225;-63
2023/10/28 06:20:46;;;;;;;8.27;5.90;;;9.30;99.90;;;-141.84;100.00;119224.81;4993495;28;20294;-62
2023/10/28 06:23:15;;;;;;;6.40;5.80;;;9.30;99.90;;;-141.84;100.00;119224.81;4994449;28;20593;-62
2023/10/28 06:25:43;;;;;;;12.00;10.17;;;9.40;99.90;;;-141.84;100.00;119224.81;4996070;28;20199;-62
2023/10/28 06:28:12;;;;;;;12.50;8.20;;;9.40;99.90;;;-141.84;100.00;119224.81;4998620;28;20283;-63
2023/10/28 06:30:48;;;;;;;8.77;7.37;;;9.50;99.90;;;-141.84;100.00;119224.81;4989688;28;20234;-64
2023/10/28 06:33:16;;;;;;;11.17;7.07;;;9.50;99.90;;;-141.84;100.00;119224.81;4993816;28;20201;-62
2023/10/28 06:35:45;;;;;;;9.10;6.93;;;9.50;99.90;;;-141.84;100.00;119224.81;4991164;28;20294;-63
2023/10/28 06:38:14;;;;;;;6.90;6.20;;;9.60;99.90;;;-141.84;100.00;119224.81;4998886;28;20770;-62
2023/10/28 06:40:42;;;;;;;12.50;11.20;;;9.60;99.90;;;-141.84;100.00;119224.81;4994596;28;20254;-63
2023/10/28 06:43:11;;;;;;;13.20;10.53;;;9.60;99.90;;;-141.84;100.00;119224.81;4990773;28;20579;-67
2023/10/28 06:45:39;;;;;;;11.50;9.87;;;9.60;99.90;;;-141.84;100.00;119224.81;4997301;28;20295;-69
2023/10/28 06:48:11;;;;;;;11.10;9.30;;;9.60;99.90;;;-141.84;100.00;119224.81;4990127;28;20203;-67
2023/10/28 06:50:39;;;;;;;9.20;8.27;;;9.70;99.90;;;-141.84;100.00;119224.81;4994466;28;20226;-68
2023/10/28 06:53:09;;;;;;;10.13;7.27;;;9.70;99.90;;;-141.84;100.00;119224.81;4995957;28;20234;-68
2023/10/28 06:55:37;;;;;;;12.07;8.70;;;9.70;99.90;;;-141.84;100.00;119224.81;4990103;28;20200;-66
2023/10/28 06:58:05;;;;;;;10.30;7.50;;;9.80;99.90;;;-141.84;100.00;119224.81;4994540;28;20247;-68
2023/10/28 07:00:33;;;;;;;9.60;7.10;;;9.80;99.90;;;-141.84;100.00;119224.81;4990432;28;20649;-69
2023/10/28 07:03:02;;;;;;;7.03;6.27;;;9.90;99.90;;;-141.84;100.00;119224.81;4999143;28;20203;-68
2023/10/28 07:05:32;;;;;;;8.70;6.97;;;10.00;99.90;;;-141.84;100.00;119224.81;4992524;28;20257;-69
2023/10/28 07:08:00;;;;;;;9.40;7.47;;;10.00;99.90;;;-141.84;100.00;119224.81;4994028;28;20686;-68
2023/10/28 07:10:28;;;;;;;10.10;7.10;;;10.00;99.90;;;-141.84;100.00;119224.81;4996977;28;20600;-68
2023/10/28 07:12:56;;;;;;;9.30;7.27;;;10.00;99.90;;;-141.84;100.00;119224.81;4998184;28;20206;-70
2023/10/28 07:15:24;;;;;;;10.43;7.03;;;10.10;99.90;;;-141.84;100.00;119224.81;4997638;28;20298;-69
2023/10/28 07:17:54;;;;;;;9.90;7.93;;;10.10;99.90;;;-141.84;100.00;119224.81;4986974;28;20223;-68
2023/10/28 07:20:23;;;;;;;11.20;7.40;;;10.20;99.90;;;-141.84;100.00;119224.81;4990041;28;20196;-69
2023/10/28 07:22:52;;;;;;;11.50;8.70;;;10.30;99.90;;;-141.84;100.00;119224.81;4998682;28;20200;-69
2023/10/28 07:25:21;;;;;;;11.63;8.13;;;10.40;99.90;;;-141.84;100.00;119224.81;4993167;28;20199;-68
2023/10/28 07:27:49;;;;;;;8.30;7.23;;;10.50;99.90;;;-141.84;100.00;119224.81;4991773;28;20261;-69
2023/10/28 07:30:17;;;;;;;8.73;7.27;;;10.60;99.90;;;-141.84;100.00;119224.81;4994032;28;20206;-68
2023/10/28 07:32:46;;;;;;;10.50;7.20;;;10.60;99.90;;;-141.84;100.00;119224.81;4995929;28;20311;-70
2023/10/28 07:35:16;;;;;;;9.03;7.37;;;10.70;99.90;;;-141.84;100.00;119224.81;4994062;28;20219;-68
2023/10/28 07:37:46;;;;;;;8.53;6.37;;;10.70;99.90;;;-141.84;100.00;119224.81;4993989;28;20766;-69
2023/10/28 07:40:16;;;;;;;8.77;6.50;;;10.80;99.90;;;-141.84;100.00;119224.81;4991855;28;20216;-69
2023/10/28 07:42:44;;;;;;;6.40;5.27;;;10.90;99.90;;;-141.84;100.00;119224.81;4994542;28;20286;-70
2023/10/28 07:45:13;;;;;;;5.67;5.13;;;11.10;99.90;;;-141.84;100.00;119224.81;4993140;28;20195;-70
2023/10/28 07:47:42;;;;;;;8.30;4.80;;;11.20;99.90;;;-141.84;100.00;119224.81;4992993;28;20199;-70
2023/10/28 07:50:10;;;;;;;6.53;4.50;;;11.10;99.90;;;-141.84;100.00;119224.81;4995377;28;20207;-69
2023/10/28 07:52:39;;;;;;;7.53;4.20;;;11.10;99.90;;;-141.84;100.00;119224.81;4992502;28;20306;-69
2023/10/28 07:55:07;;;;;;;6.60;4.93;;;11.10;99.90;;;-141.84;100.00;119224.81;4997246;28;20199;-72
2023/10/28 07:57:37;;;;;;;8.38;3.72;;;11.00;99.90;;;-141.84;100.00;119224.81;4992719;28;20707;-71
2023/10/28 08:00:10;;;;;;;6.77;4.00;;;11.00;99.90;;;-141.84;100.00;119224.81;4995867;28;20323;-69
2023/10/28 08:02:39;;;;;;;3.67;3.37;;;10.90;99.90;;;-141.84;100.00;119224.81;4994546;28;20242;-71
2023/10/28 08:05:10;;;;;;;5.70;3.50;;;10.80;99.90;;;-141.84;100.00;119224.81;4998344;28;20566;-70
2023/10/28 08:07:38;;;;;;;7.50;4.37;;;10.80;99.90;;;-141.84;100.00;119224.81;4997238;28;20668;-69
2023/10/28 08:10:08;;;;;;;4.70;4.27;;;10.70;99.90;;;-141.84;100.00;119224.81;4995431;28;20279;-68
2023/10/28 08:12:39;;;;;;;4.50;4.10;;;10.70;99.90;;;-141.84;100.00;119224.81;4993660;28;20306;-70
2023/10/28 08:15:09;;;;;;;6.00;5.37;;;10.80;99.90;;;-141.84;100.00;119224.81;4997405;28;20207;-69
2023/10/28 08:17:37;;;;;;;6.67;5.27;;;10.90;99.90;;;-141.84;100.00;119224.81;4997255;28;20274;-68
2023/10/28 08:20:08;;;;;;;9.50;5.97;;;10.90;99.90;;;-141.84;100.00;119224.81;4994059;28;20222;-70
2023/10/28 08:22:37;;;;;;;7.10;6.47;;;10.90;99.90;;;-141.84;100.00;119224.81;4999217;28;20192;-69
2023/10/28 08:25:05;;;;;;;7.90;6.50;;;11.00;99.90;;;-141.84;100.00;119224.81;4997726;28;20212;-69
2023/10/28 08:27:34;;;;;;;7.13;6.53;;;11.10;99.90;;;-141.84;100.00;119224.81;4999865;28;20218;-69
2023/10/28 08:30:05;;;;;;;5.27;4.77;;;11.10;99.90;;;-141.84;100.00;119224.81;4996307;28;20195;-61
2023/10/28 08:32:33;;;;;;;7.47;5.75;;;11.20;99.90;;;-141.84;100.00;119224.81;4994386;28;20274;-63
2023/10/28 08:35:04;;;;;;;6.50;5.90;;;11.50;99.90;;;-141.84;100.00;119224.81;4994526;28;20426;-62
2023/10/28 08:37:32;;;;;;;5.17;4.60;;;11.30;99.90;;;-141.84;100.00;119224.81;4995108;28;20218;-62
2023/10/28 08:40:01;;;;;;;4.43;4.03;;;11.30;99.90;;;-141.84;100.00;119224.81;4995170;28;20199;-62
2023/10/28 08:42:31;;;;;;;7.53;4.67;;;11.30;99.90;;;-141.84;100.00;119224.81;4991822;28;20199;-70
2023/10/28 08:45:01;;;;;;;6.53;5.28;;;11.30;99.90;;;-141.84;100.00;119224.81;4995028;28;21005;-69
2023/10/28 08:47:34;;;;;;;3.40;3.10;;;11.30;99.90;;;-141.84;100.00;119224.81;4995844;28;20207;-69
2023/10/28 08:50:07;;;;;;;2.93;2.63;;;11.40;99.90;;;-141.84;100.00;119224.81;4994613;28;20370;-69
2023/10/28 08:52:39;;;;;;;3.70;2.77;;;11.50;99.90;;;-141.84;100.00;118956.03;4991952;28;21404;-69
2023/10/28 08:55:10;;;;;;;2.30;2.10;;;11.70;99.90;;;-141.84;100.00;112560.63;4995213;28;20282;-70
2023/10/28 08:57:44;;;;;;;2.03;1.93;;;11.80;99.90;;;-141.84;100.00;109898.81;4984496;28;20297;-62
2023/10/28 09:00:15;;;;;;;2.20;2.00;;;11.90;99.90;;;-141.84;100.00;111761.88;4989485;28;20238;-62
2023/10/28 09:02:48;;;;;;;1.80;1.70;;;12.00;99.90;;;-141.84;100.00;114957.72;4993558;28;20215;-61
2023/10/28 09:05:19;;;;;;;3.35;3.15;;;12.00;99.90;;;-141.84;100.00;116290.06;4991984;28;20640;-62
2023/10/28 09:07:48;;;;;;;2.80;2.20;;;11.90;99.90;;;-141.84;100.00;113892.16;4991659;28;20678;-61
2023/10/28 09:10:17;;;;;;;3.22;1.48;;;11.80;99.90;;;-141.84;100.00;114158.53;4993389;28;20742;-63
2023/10/28 09:12:45;;;;;;;2.67;1.40;;;11.80;99.90;;;-141.84;100.00;116556.59;4992835;28;20286;-61
2023/10/28 09:15:13;;;;;;;1.80;1.60;;;11.80;99.90;;;-141.84;100.00;116556.59;4993188;28;20353;-61
2023/10/28 09:17:42;;;;;;;1.97;1.80;;;11.80;99.90;;;-141.84;100.00;118156.06;4996911;28;20714;-61
2023/10/28 09:20:12;;;;;;;2.30;2.10;;;11.80;99.90;;;-141.84;100.00;119222.75;4997136;28;20212;-61
2023/10/28 09:22:44;;;;;;;3.65;1.90;;;11.90;99.90;;;-141.84;100.00;119222.75;4993228;28;20291;-62
2023/10/28 09:25:15;;;;;;;2.60;2.40;;;11.90;99.90;;;-141.84;100.00;117622.84;4991879;28;20674;-62
2023/10/28 09:27:45;;;;;;;3.53;2.30;;;11.90;99.90;;;-141.84;100.00;117089.69;4994624;28;20633;-63
2023/10/28 09:30:15;;;;;;;2.33;2.17;;;12.00;99.90;;;-141.84;100.00;118422.72;4993346;28;20250;-62
2023/10/28 09:32:44;;;;;;;2.53;2.33;;;12.10;99.90;;;-141.84;100.00;118422.72;4994139;28;20600;-64
2023/10/28 09:35:14;;;;;;;3.13;2.38;;;12.20;99.90;;;-141.84;100.00;118422.72;4996528;28;20262;-63
2023/10/28 09:37:44;;;;;;;2.50;2.30;;;12.50;99.90;;;-141.84;100.00;117622.84;4992906;28;20693;-62
2023/10/28 09:40:14;;;;;;;3.53;2.40;;;12.70;99.90;;;-141.84;100.00;116290.06;4996710;28;20211;-61
2023/10/28 09:42:43;;;;;;;2.72;2.17;;;12.90;99.90;;;-141.84;100.00;116823.13;4996189;28;20576;-62
2023/10/28 09:45:12;;;;;;;2.40;2.20;;;13.10;99.90;;;-141.84;100.00;117356.25;4992286;28;20242;-62
2023/10/28 09:47:51;;;;;;;2.50;2.30;;;13.20;99.90;;;-141.84;100.00;114158.53;4999084;28;20199;-62
2023/10/28 09:50:25;;;;;;;2.60;2.40;;;13.30;99.90;;;-141.84;100.00;91314.81;4996256;28;20691;-62
2023/10/28 09:52:55;;;;;;;2.42;2.22;;;13.30;99.90;;;-141.84;100.00;92374.47;4997287;28;20253;-62
2023/10/28 09:55:27;;;;;;;2.28;2.00;;;13.30;99.90;;;-141.84;100.00;80997.84;4991646;28;20467;-62
2023/10/28 09:58:07;;;;;;;2.13;1.92;;;13.40;99.90;;;-141.84;100.00;73870.81;4994830;28;20765;-62
2023/10/28 10:00:37;;;;;;;1.52;1.42;;;13.50;99.90;;;-141.84;100.00;68072.97;4998375;28;20698;-62
2023/10/28 10:03:26;;;;;;;1.40;1.30;;;13.50;99.90;;;-141.84;100.00;25050.69;4996167;28;20570;-62
2023/10/28 10:05:56;;;;;;;3.20;1.33;;;13.50;99.90;;;-141.84;100.00;20535.41;4996360;28;20222;-62